Time;durP1;ratioP1;P1;durP2;ratioP2;P2;SDS_P1;SDS_P2;PMS_P1;PMS_P2;Temp;Humidity;BMP_temperature;BMP_pressure;BME280_temperature;BME280_humidity;BME280_pressure;Samples;Min_cycle;Max_cycle;Signal;HPM_P1;HPM_P2
2021/11/29 00:01:12;;;;;;;57.27;28.17;;;1.30;99.90;;;;;;5057095;28;20524;-62
2021/11/29 00:03:39;;;;;;;49.77;27.63;;;1.20;99.90;;;;;;5056299;28;20504;-61
2021/11/29 00:06:10;;;;;;;43.60;25.87;;;1.30;99.90;;;;;;5054815;28;20445;-62
2021/11/29 00:08:38;;;;;;;60.63;29.47;;;1.30;99.90;;;;;;5056956;28;20856;-62
2021/11/29 00:11:06;;;;;;;52.33;28.97;;;1.30;99.90;;;;;;5054556;28;20455;-62
2021/11/29 00:13:37;;;;;;;52.50;29.30;;;1.30;99.90;;;;;;5057329;28;20880;-61
2021/11/29 00:16:05;;;;;;;55.40;28.50;;;1.20;99.90;;;;;;5057261;28;20476;-61
2021/11/29 00:18:32;;;;;;;51.30;28.47;;;1.10;99.90;;;;;;5056730;28;20511;-61
2021/11/29 00:21:00;;;;;;;53.03;30.07;;;1.20;99.90;;;;;;5056958;28;20545;-62
2021/11/29 00:23:30;;;;;;;54.97;29.00;;;1.20;99.90;;;;;;5054170;28;20507;-61
2021/11/29 00:25:58;;;;;;;52.13;28.97;;;1.20;99.90;;;;;;5056863;28;20542;-62
2021/11/29 00:28:30;;;;;;;59.10;31.17;;;1.20;99.90;;;;;;5054028;28;20553;-62
2021/11/29 00:30:57;;;;;;;61.67;30.07;;;1.20;99.90;;;;;;5056802;28;20525;-62
2021/11/29 00:33:25;;;;;;;54.70;28.80;;;1.20;99.90;;;;;;5056616;28;20552;-62
2021/11/29 00:35:54;;;;;;;56.93;30.30;;;1.30;99.90;;;;;;5056813;28;20561;-62
2021/11/29 00:38:21;;;;;;;50.83;30.00;;;1.40;99.90;;;;;;5056012;28;20545;-62
2021/11/29 00:40:51;;;;;;;57.37;28.10;;;1.30;99.90;;;;;;5056247;28;20512;-62
2021/11/29 00:43:18;;;;;;;50.77;29.13;;;1.20;99.90;;;;;;5056395;28;20577;-62
2021/11/29 00:45:47;;;;;;;50.37;28.97;;;1.30;99.90;;;;;;5056626;28;20533;-62
2021/11/29 00:48:14;;;;;;;57.93;30.27;;;1.40;99.90;;;;;;5055727;28;20544;-62
2021/11/29 00:50:44;;;;;;;51.97;29.77;;;1.30;99.90;;;;;;5055894;28;20524;-62
2021/11/29 00:53:13;;;;;;;47.57;27.90;;;1.20;99.90;;;;;;5056042;28;20465;-61
2021/11/29 00:55:41;;;;;;;48.37;28.60;;;1.20;99.90;;;;;;5056270;28;20459;-60
2021/11/29 00:58:16;;;;;;;43.10;25.93;;;1.10;99.90;;;;;;5056351;28;20553;-61
2021/11/29 01:00:44;;;;;;;43.80;26.60;;;1.10;99.90;;;;;;5055957;28;20915;-61
2021/11/29 01:03:13;;;;;;;38.70;23.37;;;1.00;99.90;;;;;;5055791;28;20466;-61
2021/11/29 01:05:40;;;;;;;40.17;24.80;;;1.00;99.90;;;;;;5056041;28;20538;-61
2021/11/29 01:08:10;;;;;;;39.63;24.37;;;1.00;99.90;;;;;;5053452;28;20568;-61
2021/11/29 01:10:37;;;;;;;38.17;24.47;;;1.00;99.90;;;;;;5055795;28;20659;-61
2021/11/29 01:13:05;;;;;;;41.60;26.87;;;1.00;99.90;;;;;;5055787;28;20480;-60
2021/11/29 01:15:35;;;;;;;40.57;22.77;;;0.90;99.90;;;;;;5055498;28;20457;-58
2021/11/29 01:18:08;;;;;;;37.57;23.57;;;0.80;99.90;;;;;;5055705;28;20560;-60
2021/11/29 01:20:42;;;;;;;43.30;25.80;;;0.80;99.90;;;;;;5055859;28;20461;-61
2021/11/29 01:23:10;;;;;;;39.13;24.50;;;0.80;99.90;;;;;;5053789;28;20551;-61
2021/11/29 01:25:38;;;;;;;40.23;24.67;;;0.70;99.90;;;;;;5056085;28;20516;-60
2021/11/29 01:28:09;;;;;;;46.33;26.00;;;0.70;99.90;;;;;;5052869;28;21003;-61
2021/11/29 01:30:38;;;;;;;41.03;23.90;;;0.70;99.90;;;;;;5055367;28;20517;-61
2021/11/29 01:33:07;;;;;;;43.10;26.20;;;0.70;99.90;;;;;;5055885;28;20459;-61
2021/11/29 01:35:36;;;;;;;44.03;24.20;;;0.70;99.90;;;;;;5055847;28;20481;-61
2021/11/29 01:38:06;;;;;;;45.33;24.90;;;0.70;99.90;;;;;;5055781;28;20470;-61
2021/11/29 01:40:34;;;;;;;44.53;23.80;;;0.70;99.90;;;;;;5055195;28;20485;-61
2021/11/29 01:43:04;;;;;;;39.53;25.00;;;0.70;99.90;;;;;;5054781;28;20548;-61
2021/11/29 01:45:33;;;;;;;39.10;24.27;;;0.60;99.90;;;;;;5056946;28;20853;-62
2021/11/29 01:48:01;;;;;;;44.43;23.00;;;0.60;99.90;;;;;;5059460;28;20469;-62
2021/11/29 01:50:28;;;;;;;38.87;22.17;;;0.50;99.90;;;;;;5059272;28;20548;-62
2021/11/29 01:52:57;;;;;;;35.73;20.87;;;0.50;99.90;;;;;;5059770;28;20552;-62
2021/11/29 01:55:25;;;;;;;38.77;21.10;;;0.50;99.90;;;;;;5059544;28;20529;-61
2021/11/29 01:57:52;;;;;;;32.53;21.20;;;0.50;99.90;;;;;;5059706;28;20539;-61
2021/11/29 02:00:24;;;;;;;31.43;19.40;;;0.50;99.90;;;;;;5059347;28;20772;-61
2021/11/29 02:02:53;;;;;;;35.07;19.57;;;0.50;99.90;;;;;;5057518;28;20978;-61
2021/11/29 02:05:22;;;;;;;30.07;18.33;;;0.40;99.90;;;;;;5059261;28;20496;-61
2021/11/29 02:07:49;;;;;;;24.17;17.63;;;0.50;99.90;;;;;;5057545;28;20459;-60
2021/11/29 02:10:20;;;;;;;31.90;19.20;;;0.50;99.90;;;;;;5058825;28;20517;-59
2021/11/29 02:12:48;;;;;;;33.37;18.23;;;0.50;99.90;;;;;;5056996;28;20472;-61
2021/11/29 02:15:16;;;;;;;28.20;17.23;;;0.40;99.90;;;;;;5059702;28;20463;-60
2021/11/29 02:17:44;;;;;;;25.93;17.53;;;0.40;99.90;;;;;;5059652;28;20467;-59
2021/11/29 02:20:14;;;;;;;28.87;17.67;;;0.40;99.90;;;;;;5058513;28;20519;-60
2021/11/29 02:22:44;;;;;;;22.37;15.73;;;0.30;99.90;;;;;;5059199;28;20590;-61
2021/11/29 02:25:18;;;;;;;19.93;15.33;;;0.40;99.90;;;;;;5059248;28;20440;-62
2021/11/29 02:27:47;;;;;;;22.20;15.80;;;0.50;99.90;;;;;;5056603;28;20552;-61
2021/11/29 02:30:18;;;;;;;22.20;15.70;;;0.60;99.90;;;;;;5058756;28;20977;-60
2021/11/29 02:32:46;;;;;;;24.10;14.00;;;0.50;99.90;;;;;;5059140;28;20801;-60
2021/11/29 02:35:13;;;;;;;23.00;15.33;;;0.50;99.90;;;;;;5058835;28;20942;-60
2021/11/29 02:37:42;;;;;;;20.47;15.00;;;0.50;99.90;;;;;;5058753;28;20560;-62
2021/11/29 02:40:12;;;;;;;19.47;14.63;;;0.50;99.90;;;;;;5056938;28;20475;-61
2021/11/29 02:42:40;;;;;;;17.77;13.40;;;0.50;99.90;;;;;;5059003;28;20511;-62
2021/11/29 02:45:08;;;;;;;15.13;12.47;;;0.40;99.90;;;;;;5056240;28;20924;-62
2021/11/29 02:47:39;;;;;;;23.37;14.80;;;0.50;99.90;;;;;;5057950;28;20878;-62
2021/11/29 02:50:08;;;;;;;20.27;13.47;;;0.60;99.90;;;;;;5055630;28;20559;-61
2021/11/29 02:52:36;;;;;;;15.60;12.47;;;0.50;99.90;;;;;;5058655;28;20560;-62
2021/11/29 02:55:05;;;;;;;17.47;13.10;;;0.50;99.90;;;;;;5058650;28;20581;-62
2021/11/29 02:57:39;;;;;;;19.77;12.60;;;0.50;99.90;;;;;;5057878;28;20547;-62
2021/11/29 03:00:09;;;;;;;19.10;13.63;;;0.50;99.90;;;;;;5055586;28;20988;-62
2021/11/29 03:02:36;;;;;;;17.23;13.70;;;0.50;99.90;;;;;;5058269;28;20484;-62
2021/11/29 03:05:08;;;;;;;17.10;12.80;;;0.60;99.90;;;;;;5057880;28;20481;-62
2021/11/29 03:07:36;;;;;;;15.70;12.93;;;0.60;99.90;;;;;;5058393;28;20465;-62
2021/11/29 03:10:08;;;;;;;14.03;12.57;;;0.60;99.90;;;;;;5058034;28;20544;-62
2021/11/29 03:12:36;;;;;;;14.67;12.20;;;0.60;99.90;;;;;;5058034;28;20548;-62
2021/11/29 03:15:03;;;;;;;17.50;12.77;;;0.60;99.90;;;;;;5058074;28;20932;-62
2021/11/29 03:17:30;;;;;;;15.80;11.77;;;0.60;99.90;;;;;;5058082;28;20458;-62
2021/11/29 03:19:57;;;;;;;15.00;13.27;;;0.70;99.90;;;;;;5058303;28;20530;-62
2021/11/29 03:22:25;;;;;;;17.53;11.87;;;0.60;99.90;;;;;;5057844;28;20544;-62
2021/11/29 03:24:52;;;;;;;13.90;11.60;;;0.60;99.90;;;;;;5057986;28;20936;-60
2021/11/29 03:27:21;;;;;;;12.87;11.27;;;0.50;99.90;;;;;;5057443;28;20565;-62
2021/11/29 03:29:50;;;;;;;13.20;10.90;;;0.50;99.90;;;;;;5055352;28;20572;-62
2021/11/29 03:32:19;;;;;;;13.83;11.73;;;0.50;99.90;;;;;;5058004;28;20544;-62
2021/11/29 03:34:46;;;;;;;15.97;11.30;;;0.50;99.90;;;;;;5057850;28;20450;-62
2021/11/29 03:37:13;;;;;;;15.93;11.33;;;0.40;99.90;;;;;;5058374;28;20458;-62
2021/11/29 03:39:41;;;;;;;17.30;11.63;;;0.40;99.90;;;;;;5058754;28;20478;-62
2021/11/29 03:42:20;;;;;;;18.63;11.60;;;0.40;99.90;;;;;;5059392;28;20956;-62
2021/11/29 03:44:51;;;;;;;14.50;11.30;;;0.40;99.90;;;;;;5058612;28;20476;-61
2021/11/29 03:47:23;;;;;;;14.87;11.17;;;0.40;99.90;;;;;;5059773;28;20918;-62
2021/11/29 03:49:51;;;;;;;13.53;11.00;;;0.30;99.90;;;;;;5058065;28;20534;-62
2021/11/29 03:52:18;;;;;;;12.77;10.67;;;0.30;99.90;;;;;;5058612;28;20490;-62
2021/11/29 03:54:46;;;;;;;12.80;11.10;;;0.30;99.90;;;;;;5058924;28;20461;-62
2021/11/29 03:57:13;;;;;;;12.07;10.43;;;0.30;99.90;;;;;;5058635;28;20472;-62
2021/11/29 03:59:41;;;;;;;13.30;11.37;;;0.30;99.90;;;;;;5058545;28;20465;-62
2021/11/29 04:02:11;;;;;;;14.17;11.47;;;0.40;99.90;;;;;;5058196;28;20465;-62
2021/11/29 04:04:38;;;;;;;13.50;11.40;;;0.40;99.90;;;;;;5058746;28;20875;-62
2021/11/29 04:07:06;;;;;;;19.53;12.93;;;0.40;99.90;;;;;;5058363;28;20464;-62
2021/11/29 04:09:33;;;;;;;14.60;11.67;;;0.30;99.90;;;;;;5057438;28;20497;-62
2021/11/29 04:12:02;;;;;;;13.70;11.57;;;0.40;99.90;;;;;;5057843;28;20915;-62
2021/11/29 04:14:30;;;;;;;16.70;12.37;;;0.40;99.90;;;;;;5057894;28;20901;-62
2021/11/29 04:16:58;;;;;;;17.53;13.43;;;0.50;99.90;;;;;;5058536;28;20467;-62
2021/11/29 04:19:27;;;;;;;16.27;13.60;;;0.50;99.90;;;;;;5057994;28;20573;-62
2021/11/29 04:21:54;;;;;;;18.27;13.53;;;0.50;99.90;;;;;;5058457;28;20855;-62
2021/11/29 04:24:23;;;;;;;16.43;12.30;;;0.50;99.90;;;;;;5058434;28;20466;-63
2021/11/29 04:27:01;;;;;;;17.87;12.57;;;0.50;99.90;;;;;;5058323;28;20480;-63
2021/11/29 04:29:31;;;;;;;13.63;11.67;;;0.50;99.90;;;;;;5058140;28;20454;-62
2021/11/29 04:31:58;;;;;;;14.27;11.60;;;0.50;99.90;;;;;;5058238;28;20474;-62
2021/11/29 04:34:27;;;;;;;14.40;11.50;;;0.50;99.90;;;;;;5057774;28;20465;-62
2021/11/29 04:36:54;;;;;;;14.03;12.30;;;0.50;99.90;;;;;;5058081;28;20564;-63
2021/11/29 04:39:24;;;;;;;15.13;11.43;;;0.60;99.90;;;;;;5058311;28;20539;-62
2021/11/29 04:41:51;;;;;;;18.13;11.43;;;0.60;99.90;;;;;;5057397;28;20463;-62
2021/11/29 04:44:18;;;;;;;14.43;11.30;;;0.60;99.90;;;;;;5057464;28;20835;-62
2021/11/29 04:46:46;;;;;;;14.33;12.83;;;0.60;99.90;;;;;;5057543;28;20533;-62
2021/11/29 04:49:13;;;;;;;20.40;12.50;;;0.60;99.90;;;;;;5072304;28;20543;-63
2021/11/29 04:51:42;;;;;;;13.87;11.00;;;0.70;99.90;;;;;;5063236;28;20587;-63
2021/11/29 04:54:09;;;;;;;13.57;11.70;;;0.60;99.90;;;;;;5057935;28;20551;-63
2021/11/29 04:56:38;;;;;;;12.87;11.47;;;0.50;99.90;;;;;;5057821;28;20471;-63
2021/11/29 04:59:05;;;;;;;14.23;11.17;;;0.60;99.90;;;;;;5057788;28;20499;-63
2021/11/29 05:01:32;;;;;;;13.27;11.27;;;0.60;99.90;;;;;;5057526;28;20436;-63
2021/11/29 05:04:00;;;;;;;16.70;11.60;;;0.60;99.90;;;;;;5056511;28;20543;-63
2021/11/29 05:06:27;;;;;;;13.87;12.40;;;0.60;99.90;;;;;;5056173;28;20495;-63
2021/11/29 05:08:56;;;;;;;14.67;12.70;;;0.60;99.90;;;;;;5056931;28;20559;-63
2021/11/29 05:11:23;;;;;;;14.50;11.93;;;0.70;99.90;;;;;;5056599;28;20533;-63
2021/11/29 05:13:50;;;;;;;14.20;12.53;;;0.60;99.90;;;;;;5067208;28;20497;-63
2021/11/29 05:16:18;;;;;;;16.00;13.00;;;0.60;99.90;;;;;;5062410;28;20549;-62
2021/11/29 05:18:45;;;;;;;17.00;12.53;;;0.60;99.90;;;;;;5065923;28;20435;-63
2021/11/29 05:21:12;;;;;;;17.17;13.57;;;0.60;99.90;;;;;;5066239;28;20556;-62
2021/11/29 05:23:40;;;;;;;20.10;13.70;;;0.70;99.90;;;;;;5065224;28;20544;-63
2021/11/29 05:26:11;;;;;;;17.37;14.90;;;0.70;99.90;;;;;;5066896;28;20552;-63
2021/11/29 05:28:38;;;;;;;24.53;16.40;;;0.70;99.90;;;;;;5060950;28;20446;-63
2021/11/29 05:31:06;;;;;;;20.33;16.47;;;0.80;99.90;;;;;;5065006;28;20495;-63
2021/11/29 05:33:33;;;;;;;22.43;16.17;;;0.80;99.90;;;;;;5063580;28;20465;-63
2021/11/29 05:36:00;;;;;;;20.60;15.50;;;0.80;99.90;;;;;;5067079;28;20487;-63
2021/11/29 05:38:28;;;;;;;20.90;15.30;;;0.80;99.90;;;;;;5064879;28;20896;-63
2021/11/29 05:40:56;;;;;;;23.43;17.20;;;0.80;99.90;;;;;;5065070;28;20463;-63
2021/11/29 05:43:25;;;;;;;24.20;17.50;;;0.90;99.90;;;;;;5064416;28;20553;-63
2021/11/29 05:45:52;;;;;;;21.63;15.70;;;0.90;99.90;;;;;;5066102;28;20544;-64
2021/11/29 05:48:20;;;;;;;24.77;16.90;;;0.90;99.90;;;;;;5064282;28;20536;-64
2021/11/29 05:50:47;;;;;;;22.77;17.00;;;0.80;99.90;;;;;;5061861;28;20493;-63
2021/11/29 05:53:14;;;;;;;25.00;17.70;;;0.90;99.90;;;;;;5065033;28;20465;-63
2021/11/29 05:55:41;;;;;;;24.17;18.17;;;0.80;99.90;;;;;;5065312;28;20551;-63
2021/11/29 05:58:09;;;;;;;24.73;18.43;;;0.90;99.90;;;;;;5063813;28;20465;-62
2021/11/29 06:00:40;;;;;;;28.83;19.40;;;1.00;99.90;;;;;;5063837;28;20465;-63
2021/11/29 06:03:07;;;;;;;25.50;17.83;;;0.90;99.90;;;;;;5065443;28;20626;-62
2021/11/29 06:05:34;;;;;;;24.63;18.13;;;0.90;99.90;;;;;;5022982;28;20458;-62
2021/11/29 06:08:02;;;;;;;21.27;16.80;;;0.90;99.90;;;;;;5024144;28;20566;-63
2021/11/29 06:10:29;;;;;;;26.70;17.90;;;0.90;99.90;;;;;;5026275;28;20469;-62
2021/11/29 06:12:56;;;;;;;23.77;16.37;;;0.90;99.90;;;;;;5025867;28;20545;-63
2021/11/29 06:15:24;;;;;;;28.50;17.63;;;0.80;99.90;;;;;;5022954;28;20549;-63
2021/11/29 06:17:52;;;;;;;27.50;17.33;;;0.90;99.90;;;;;;5025267;28;20889;-62
2021/11/29 06:20:23;;;;;;;26.97;19.40;;;0.90;99.90;;;;;;5021062;28;20482;-63
2021/11/29 06:22:54;;;;;;;26.83;19.37;;;0.90;99.90;;;;;;5021043;28;20467;-62
2021/11/29 06:25:23;;;;;;;26.37;18.90;;;0.90;99.90;;;;;;5023648;28;20861;-63
2021/11/29 06:27:51;;;;;;;27.30;19.83;;;0.90;99.90;;;;;;5024391;28;20936;-63
2021/11/29 06:30:19;;;;;;;23.20;17.50;;;0.90;99.90;;;;;;5023300;28;21129;-63
2021/11/29 06:32:47;;;;;;;27.17;17.17;;;0.90;99.90;;;;;;5019252;28;20507;-62
2021/11/29 06:35:16;;;;;;;25.53;17.97;;;1.00;99.90;;;;;;5018987;28;20501;-63
2021/11/29 06:37:46;;;;;;;21.63;17.53;;;1.10;99.90;;;;;;5019462;28;20542;-62
2021/11/29 06:40:14;;;;;;;21.13;17.10;;;1.10;99.90;;;;;;5016750;28;20863;-63
2021/11/29 06:42:42;;;;;;;30.27;19.77;;;1.00;99.90;;;;;;5017752;28;20474;-63
2021/11/29 06:45:12;;;;;;;21.80;17.00;;;1.00;99.90;;;;;;5018260;28;20462;-63
2021/11/29 06:47:42;;;;;;;23.17;16.10;;;1.10;99.90;;;;;;5019322;28;20554;-63
2021/11/29 06:50:12;;;;;;;23.60;17.07;;;1.00;99.90;;;;;;5024858;28;20514;-63
2021/11/29 06:52:41;;;;;;;20.90;16.60;;;1.00;99.90;;;;;;5031378;28;20455;-64
2021/11/29 06:55:12;;;;;;;25.63;18.27;;;1.00;99.90;;;;;;5023432;28;20467;-63
2021/11/29 06:57:39;;;;;;;19.80;17.00;;;1.00;99.90;;;;;;5022522;28;20479;-63
2021/11/29 07:00:09;;;;;;;23.13;17.47;;;1.10;99.90;;;;;;5020106;28;20472;-63
2021/11/29 07:02:38;;;;;;;19.60;17.53;;;1.00;99.90;;;;;;5018236;28;20526;-63
2021/11/29 07:05:07;;;;;;;23.20;18.57;;;1.10;99.90;;;;;;5052509;28;20539;-63
2021/11/29 07:07:35;;;;;;;21.17;18.57;;;1.10;99.90;;;;;;5059525;28;20909;-64
2021/11/29 07:10:04;;;;;;;21.43;18.23;;;1.10;99.90;;;;;;5059246;28;20552;-64
2021/11/29 07:12:31;;;;;;;23.20;19.37;;;1.00;99.90;;;;;;5058356;28;20807;-63
2021/11/29 07:14:58;;;;;;;20.23;17.33;;;1.00;99.90;;;;;;5059336;28;20547;-63
2021/11/29 07:17:28;;;;;;;18.60;16.60;;;1.00;99.90;;;;;;5059524;28;20563;-63
2021/11/29 07:19:57;;;;;;;19.40;16.20;;;1.00;99.90;;;;;;5058842;28;20979;-64
2021/11/29 07:22:25;;;;;;;15.77;14.03;;;1.00;99.90;;;;;;5058394;28;20888;-63
2021/11/29 07:25:03;;;;;;;17.43;15.53;;;1.10;99.90;;;;;;5056256;28;20530;-64
2021/11/29 07:27:35;;;;;;;16.40;14.33;;;1.00;99.90;;;;;;5059482;28;20475;-64
2021/11/29 07:30:04;;;;;;;17.03;15.20;;;1.10;99.90;;;;;;5058764;28;20503;-63
2021/11/29 07:32:37;;;;;;;19.10;16.50;;;1.10;99.90;;;;;;5066708;28;20493;-63
2021/11/29 07:35:05;;;;;;;19.17;15.90;;;1.00;99.90;;;;;;5068315;28;20545;-63
2021/11/29 07:37:32;;;;;;;19.80;15.80;;;1.10;99.90;;;;;;5063909;28;20832;-63
2021/11/29 07:40:02;;;;;;;21.20;16.47;;;1.10;99.90;;;;;;5058240;28;20541;-63
2021/11/29 07:42:29;;;;;;;18.33;16.27;;;1.10;99.90;;;;;;5057596;28;20460;-63
2021/11/29 07:45:03;;;;;;;21.00;16.00;;;1.10;99.90;;;;;;5059031;28;20547;-63
2021/11/29 07:47:30;;;;;;;18.57;16.60;;;1.00;99.90;;;;;;5059197;28;20553;-63
2021/11/29 07:50:00;;;;;;;18.27;16.47;;;1.10;99.90;;;;;;5058683;28;21045;-63
2021/11/29 07:52:32;;;;;;;20.20;18.10;;;1.10;99.90;;;;;;5058944;28;20837;-62
2021/11/29 07:55:00;;;;;;;23.80;17.30;;;1.10;99.90;;;;;;5058235;28;20469;-63
2021/11/29 07:57:30;;;;;;;22.20;17.90;;;1.10;99.90;;;;;;5059201;28;20550;-63
2021/11/29 08:00:00;;;;;;;19.07;15.90;;;1.10;99.90;;;;;;5058302;28;20918;-63
2021/11/29 08:02:34;;;;;;;20.70;17.70;;;1.10;99.90;;;;;;5057867;28;20555;-63
2021/11/29 08:05:03;;;;;;;22.90;17.33;;;1.10;99.90;;;;;;5057930;28;20589;-64
2021/11/29 08:07:35;;;;;;;23.63;16.70;;;1.10;99.90;;;;;;5058390;28;20439;-63
2021/11/29 08:10:03;;;;;;;18.47;16.57;;;1.20;99.90;;;;;;5058633;28;20518;-64
2021/11/29 08:12:31;;;;;;;20.67;17.23;;;1.20;99.90;;;;;;5058723;28;20591;-64
2021/11/29 08:15:00;;;;;;;19.13;15.80;;;1.20;99.90;;;;;;5058321;28;20457;-64
2021/11/29 08:17:27;;;;;;;17.47;14.83;;;1.20;99.90;;;;;;5057941;28;20567;-64
2021/11/29 08:19:55;;;;;;;17.97;15.20;;;1.20;99.90;;;;;;5058064;28;20527;-64
2021/11/29 08:22:25;;;;;;;16.50;14.80;;;1.20;99.90;;;;;;5058020;28;20472;-64
2021/11/29 08:24:52;;;;;;;17.30;15.43;;;1.20;99.90;;;;;;5057932;28;20564;-64
2021/11/29 08:27:20;;;;;;;17.30;15.40;;;1.20;99.90;;;;;;5057575;28;20888;-64
2021/11/29 08:29:47;;;;;;;16.00;14.30;;;1.30;99.90;;;;;;5057927;28;20563;-64
2021/11/29 08:32:17;;;;;;;16.47;14.23;;;1.20;99.90;;;;;;5057675;28;20505;-64
2021/11/29 08:34:44;;;;;;;17.03;14.77;;;1.30;99.90;;;;;;5058009;28;20462;-64
2021/11/29 08:37:12;;;;;;;17.50;13.73;;;1.30;99.90;;;;;;5057486;28;20470;-65
2021/11/29 08:39:40;;;;;;;13.63;12.30;;;1.20;99.90;;;;;;5057855;28;20465;-64
2021/11/29 08:42:08;;;;;;;13.37;11.73;;;1.20;99.90;;;;;;5057980;28;20839;-65
2021/11/29 08:44:36;;;;;;;12.53;11.07;;;1.30;99.90;;;;;;5057374;28;20466;-65
2021/11/29 08:47:06;;;;;;;12.50;11.20;;;1.20;99.90;;;;;;5057476;28;20556;-64
2021/11/29 08:49:35;;;;;;;14.20;10.77;;;1.30;99.90;;;;;;5057560;28;20468;-63
2021/11/29 08:52:03;;;;;;;13.03;11.07;;;1.30;99.90;;;;;;5057786;28;20553;-62
2021/11/29 08:54:30;;;;;;;13.40;11.83;;;1.40;99.90;;;;;;5057020;28;20549;-62
2021/11/29 08:56:58;;;;;;;12.30;10.87;;;1.30;99.90;;;;;;5056832;28;20469;-62
2021/11/29 08:59:27;;;;;;;11.87;10.67;;;1.30;99.90;;;;;;5056475;28;20963;-61
2021/11/29 09:01:57;;;;;;;13.67;9.87;;;1.40;99.90;;;;;;5057388;28;20516;-62
2021/11/29 09:04:27;;;;;;;14.57;9.80;;;1.40;99.90;;;;;;5057501;28;20481;-61
2021/11/29 09:06:56;;;;;;;12.33;10.77;;;1.50;99.90;;;;;;5057180;28;20527;-61
2021/11/29 09:09:25;;;;;;;11.03;9.93;;;1.50;99.90;;;;;;5056609;28;20923;-61
2021/11/29 09:11:55;;;;;;;12.90;10.37;;;1.40;99.90;;;;;;5058220;28;20944;-62
2021/11/29 09:14:22;;;;;;;11.63;9.90;;;1.40;99.90;;;;;;5057909;28;20466;-62
2021/11/29 09:16:49;;;;;;;12.97;11.30;;;1.50;99.90;;;;;;5057214;28;20473;-62
2021/11/29 09:19:20;;;;;;;13.27;11.43;;;1.50;99.90;;;;;;5057802;28;20568;-62
2021/11/29 09:21:48;;;;;;;12.67;11.37;;;1.50;99.90;;;;;;5058171;28;20484;-62
2021/11/29 09:24:19;;;;;;;12.60;11.27;;;1.50;99.90;;;;;;5057597;28;20549;-62
2021/11/29 09:26:49;;;;;;;16.20;13.37;;;1.50;99.90;;;;;;5057188;28;20561;-62
2021/11/29 09:29:17;;;;;;;12.77;11.43;;;1.50;99.90;;;;;;5057751;28;20900;-62
2021/11/29 09:31:45;;;;;;;14.90;11.47;;;1.50;99.90;;;;;;5053879;28;20940;-62
2021/11/29 09:34:15;;;;;;;13.80;12.30;;;1.60;99.90;;;;;;5051353;28;20544;-62
2021/11/29 09:36:42;;;;;;;12.50;10.23;;;1.60;99.90;;;;;;5057092;28;20457;-62
2021/11/29 09:39:11;;;;;;;12.43;11.07;;;1.50;99.90;;;;;;5056139;28;20493;-62
2021/11/29 09:41:40;;;;;;;13.13;11.80;;;1.50;99.90;;;;;;5057414;28;20466;-62
2021/11/29 09:44:08;;;;;;;13.63;11.70;;;1.40;99.90;;;;;;5057271;28;20928;-62
2021/11/29 09:46:37;;;;;;;14.63;11.00;;;1.50;99.90;;;;;;5056925;28;20558;-62
2021/11/29 09:49:05;;;;;;;12.40;9.73;;;1.50;99.90;;;;;;5050689;28;20499;-62
2021/11/29 09:51:35;;;;;;;8.67;7.87;;;1.50;99.90;;;;;;5055875;28;20522;-62
2021/11/29 09:54:07;;;;;;;9.13;8.23;;;1.50;99.90;;;;;;5050482;28;20467;-62
2021/11/29 09:56:35;;;;;;;9.10;8.30;;;1.50;99.90;;;;;;5051255;28;20520;-62
2021/11/29 09:59:08;;;;;;;7.70;7.00;;;1.50;99.90;;;;;;5055624;28;20486;-62
2021/11/29 10:01:36;;;;;;;10.27;7.70;;;1.50;99.90;;;;;;5049221;28;20944;-63
2021/11/29 10:04:08;;;;;;;8.53;7.77;;;1.50;99.90;;;;;;5055398;28;20568;-63
2021/11/29 10:06:35;;;;;;;8.77;7.87;;;1.50;99.90;;;;;;5054759;28;20464;-63
2021/11/29 10:09:05;;;;;;;8.80;7.90;;;1.60;99.90;;;;;;5052062;28;20479;-63
2021/11/29 10:11:35;;;;;;;10.20;9.20;;;1.60;99.90;;;;;;5059244;28;20473;-63
2021/11/29 10:14:08;;;;;;;9.90;8.90;;;1.60;99.90;;;;;;5054008;28;20473;-63
2021/11/29 10:16:39;;;;;;;13.27;9.33;;;1.40;99.90;;;;;;5054056;28;20463;-63
2021/11/29 10:19:09;;;;;;;10.80;9.77;;;1.50;99.90;;;;;;5059970;28;20971;-63
2021/11/29 10:21:39;;;;;;;12.87;9.83;;;1.50;99.90;;;;;;5062146;28;20485;-63
2021/11/29 10:24:15;;;;;;;12.77;9.20;;;1.50;99.90;;;;;;5069943;28;20540;-63
2021/11/29 10:26:50;;;;;;;12.17;9.17;;;1.50;99.90;;;;;;5070711;28;20532;-62
2021/11/29 10:29:18;;;;;;;11.23;10.00;;;1.60;99.90;;;;;;5055160;28;20548;-62
2021/11/29 10:31:49;;;;;;;12.67;11.47;;;1.70;99.90;;;;;;5049668;28;20932;-63
2021/11/29 10:34:19;;;;;;;13.00;11.70;;;1.60;99.90;;;;;;5054436;28;20466;-62
2021/11/29 10:36:54;;;;;;;19.37;12.57;;;1.70;99.90;;;;;;5053923;28;20470;-62
2021/11/29 10:39:25;;;;;;;13.67;12.27;;;1.70;99.90;;;;;;5048545;28;20882;-62
2021/11/29 10:41:59;;;;;;;14.03;11.77;;;1.80;99.90;;;;;;5059656;28;20900;-63
2021/11/29 10:44:29;;;;;;;15.57;13.17;;;1.70;99.90;;;;;;5049517;28;20560;-64
2021/11/29 10:47:08;;;;;;;16.87;12.67;;;1.80;99.90;;;;;;5050671;28;20544;-65
2021/11/29 10:49:38;;;;;;;15.30;13.67;;;1.70;99.90;;;;;;5058689;28;20975;-65
2021/11/29 10:52:07;;;;;;;20.30;15.83;;;1.80;99.90;;;;;;5059940;28;20601;-67
2021/11/29 10:54:36;;;;;;;20.70;17.43;;;1.80;99.90;;;;;;5059916;28;20462;-67
2021/11/29 10:57:11;;;;;;;22.33;16.60;;;1.80;99.90;;;;;;5059490;28;20544;-67
2021/11/29 10:59:41;;;;;;;24.00;17.50;;;1.80;99.90;;;;;;5059235;28;20469;-67
2021/11/29 11:02:19;;;;;;;23.90;19.03;;;1.80;99.90;;;;;;5058924;28;20470;-67
2021/11/29 11:04:48;;;;;;;25.50;18.53;;;1.90;99.90;;;;;;5059224;28;20490;-67
2021/11/29 11:07:21;;;;;;;24.90;19.50;;;1.80;99.90;;;;;;5059556;28;20520;-67
2021/11/29 11:09:53;;;;;;;29.43;21.40;;;1.90;99.90;;;;;;5058281;28;20470;-67
2021/11/29 11:12:27;;;;;;;30.50;20.67;;;1.90;99.90;;;;;;5059179;28;20551;-68
2021/11/29 11:14:57;;;;;;;25.90;18.60;;;2.00;99.90;;;;;;5059796;28;20466;-68
2021/11/29 11:17:27;;;;;;;29.37;19.70;;;1.90;99.90;;;;;;5059014;28;20481;-68
2021/11/29 11:19:55;;;;;;;30.53;19.83;;;2.00;99.90;;;;;;5058694;28;20455;-68
2021/11/29 11:22:25;;;;;;;30.43;20.93;;;2.00;99.90;;;;;;5059292;28;20481;-69
2021/11/29 11:24:55;;;;;;;30.00;21.93;;;2.00;99.90;;;;;;5059851;28;20673;-68
2021/11/29 11:27:31;;;;;;;33.23;21.37;;;2.00;99.90;;;;;;5059486;28;20636;-68
2021/11/29 11:30:01;;;;;;;31.80;22.90;;;2.00;99.90;;;;;;5059395;28;20470;-68
2021/11/29 11:32:35;;;;;;;29.33;20.30;;;2.00;99.90;;;;;;5059053;28;20490;-67
2021/11/29 11:35:11;;;;;;;26.60;21.20;;;2.10;99.90;;;;;;5059021;28;20461;-66
2021/11/29 11:37:40;;;;;;;29.70;22.27;;;2.00;99.90;;;;;;5059122;28;20470;-66
2021/11/29 11:40:13;;;;;;;32.57;22.50;;;2.00;99.90;;;;;;5059053;28;20560;-65
2021/11/29 11:42:43;;;;;;;29.73;21.50;;;2.00;99.90;;;;;;5059358;28;20493;-65
2021/11/29 11:45:16;;;;;;;33.20;23.97;;;2.10;99.90;;;;;;5060196;28;20546;-65
2021/11/29 11:47:54;;;;;;;30.40;23.73;;;2.10;99.90;;;;;;5059997;28;20866;-65
2021/11/29 11:50:24;;;;;;;30.90;23.10;;;2.20;99.90;;;;;;5059061;28;20481;-65
2021/11/29 11:52:58;;;;;;;31.97;25.27;;;2.30;99.90;;;;;;5059029;28;20924;-64
2021/11/29 11:55:32;;;;;;;32.47;24.23;;;2.30;99.90;;;;;;5058857;28;20465;-64
2021/11/29 11:58:00;;;;;;;34.07;24.87;;;2.30;99.90;;;;;;5059103;28;20473;-64
2021/11/29 12:00:33;;;;;;;32.00;22.97;;;2.30;99.90;;;;;;5062795;28;20498;-64
2021/11/29 12:03:27;;;;;;;33.63;24.80;;;2.30;99.90;;;;;;5059714;28;20897;-64
2021/11/29 12:05:59;;;;;;;29.73;22.77;;;2.30;99.90;;;;;;5046201;28;20556;-64
2021/11/29 12:08:36;;;;;;;35.20;25.10;;;2.40;99.90;;;;;;5064454;28;20505;-64
2021/11/29 12:11:08;;;;;;;32.83;23.53;;;2.40;99.90;;;;;;5057858;28;20481;-64
2021/11/29 12:13:44;;;;;;;29.17;22.30;;;2.50;99.90;;;;;;5057948;28;20498;-64
2021/11/29 12:16:16;;;;;;;32.90;22.97;;;2.50;99.90;;;;;;5057853;28;20470;-64
2021/11/29 12:18:55;;;;;;;31.13;23.57;;;2.60;99.90;;;;;;5057850;28;20923;-64
2021/11/29 12:21:26;;;;;;;29.63;21.40;;;2.80;99.90;;;;;;5057711;28;21011;-64
2021/11/29 12:23:55;;;;;;;26.73;21.13;;;2.80;99.90;;;;;;5057918;28;20555;-64
2021/11/29 12:27:04;;;;;;;28.27;21.67;;;2.80;99.90;;;;;;5057757;28;20552;-63
2021/11/29 12:29:51;;;;;;;27.37;21.30;;;2.80;99.90;;;;;;5057057;28;20470;-63
2021/11/29 12:32:22;;;;;;;32.47;23.57;;;2.70;99.90;;;;;;5056110;28;20493;-63
2021/11/29 12:35:12;;;;;;;30.37;23.70;;;2.70;99.90;;;;;;5059079;28;20975;-63
2021/11/29 12:37:45;;;;;;;31.57;22.70;;;2.80;99.90;;;;;;5057659;28;20458;-63
2021/11/29 12:40:17;;;;;;;33.97;23.07;;;2.80;99.90;;;;;;5056100;28;20557;-63
2021/11/29 12:43:05;;;;;;;27.07;22.17;;;2.80;99.90;;;;;;5056656;28;20544;-63
2021/11/29 12:45:35;;;;;;;29.90;22.27;;;2.80;99.90;;;;;;5056855;28;20465;-63
2021/11/29 12:48:17;;;;;;;26.30;20.53;;;2.90;99.90;;;;;;5056782;28;20466;-63
2021/11/29 12:50:52;;;;;;;24.13;19.40;;;2.90;99.90;;;;;;5055046;28;20470;-63